createdAt,value
2022-11-21T00:01:48.978Z,2.57
2022-11-21T00:04:15.434Z,2.51
2022-11-21T00:06:41.865Z,2.51
2022-11-21T00:09:08.261Z,2.50
2022-11-21T00:11:34.695Z,2.50
2022-11-21T00:14:01.111Z,2.53
2022-11-21T00:16:27.823Z,2.51
2022-11-21T00:18:54.242Z,2.52
2022-11-21T00:21:20.905Z,2.57
2022-11-21T00:23:47.695Z,2.58
2022-11-21T00:26:14.598Z,2.53
2022-11-21T00:28:41.073Z,2.55
2022-11-21T00:31:07.743Z,2.50
2022-11-21T00:33:38.751Z,2.43
2022-11-21T00:36:08.783Z,2.32
2022-11-21T00:38:35.436Z,2.25
2022-11-21T00:41:01.845Z,2.18
2022-11-21T00:43:28.277Z,2.07
2022-11-21T00:45:54.719Z,2.07
2022-11-21T00:48:21.180Z,2.07
2022-11-21T00:50:50.588Z,2.06
2022-11-21T00:53:17.068Z,2.07
2022-11-21T00:55:43.484Z,2.05
2022-11-21T00:58:09.967Z,2.06
2022-11-21T01:00:36.473Z,2.07
2022-11-21T01:03:02.950Z,2.09
2022-11-21T01:05:31.539Z,2.05
2022-11-21T01:07:57.971Z,2.04
2022-11-21T01:10:24.404Z,2.00
2022-11-21T01:12:50.834Z,1.94
2022-11-21T01:15:17.260Z,1.96
2022-11-21T01:17:43.754Z,1.96
2022-11-21T01:20:10.367Z,1.89
2022-11-21T01:22:36.797Z,1.83
2022-11-21T01:25:03.270Z,1.84
2022-11-21T01:27:29.703Z,1.82
2022-11-21T01:29:56.162Z,1.82
2022-11-21T01:32:22.611Z,1.82
2022-11-21T01:34:49.071Z,1.83
2022-11-21T01:37:15.604Z,1.86
2022-11-21T01:39:42.046Z,1.87
2022-11-21T01:42:08.704Z,1.91
2022-11-21T01:44:48.951Z,1.95
2022-11-21T01:47:15.450Z,1.97
2022-11-21T01:49:41.883Z,2.02
2022-11-21T01:52:19.694Z,2.05
2022-11-21T01:54:51.322Z,2.09
2022-11-21T01:57:19.670Z,2.09
2022-11-21T01:59:51.046Z,2.09
2022-11-21T02:02:17.922Z,2.14
2022-11-21T02:04:44.639Z,2.15
2022-11-21T02:07:11.075Z,2.16
2022-11-21T02:09:37.917Z,2.17
2022-11-21T02:12:18.865Z,2.24
2022-11-21T02:14:45.311Z,2.22
2022-11-21T02:17:11.749Z,2.21
2022-11-21T02:19:42.511Z,2.27
2022-11-21T02:22:21.457Z,2.21
2022-11-21T02:24:56.347Z,2.25
2022-11-21T02:27:22.753Z,2.22
2022-11-21T02:29:49.196Z,2.20
2022-11-21T02:32:22.658Z,2.20
2022-11-21T02:34:49.148Z,2.27
2022-11-21T02:37:15.837Z,2.28
2022-11-21T02:39:42.273Z,2.23
2022-11-21T02:42:11.658Z,2.22
2022-11-21T02:44:56.755Z,2.24
2022-11-21T02:47:23.338Z,2.26
2022-11-21T02:49:57.083Z,2.21
2022-11-21T02:52:23.603Z,2.25
2022-11-21T02:54:50.064Z,2.25
2022-11-21T02:57:16.510Z,2.22
2022-11-21T02:59:42.983Z,2.21
2022-11-21T03:02:09.410Z,2.22
2022-11-21T03:04:35.808Z,2.25
2022-11-21T03:07:02.307Z,2.23
2022-11-21T03:09:28.784Z,2.22
2022-11-21T03:11:55.204Z,2.22
2022-11-21T03:14:21.643Z,2.23
2022-11-21T03:16:48.099Z,2.21
2022-11-21T03:19:14.545Z,2.18
2022-11-21T03:21:40.958Z,2.16
2022-11-21T03:24:07.731Z,2.16
2022-11-21T03:26:34.171Z,2.20
2022-11-21T03:29:00.715Z,2.16
2022-11-21T03:31:27.201Z,2.15
2022-11-21T03:33:53.829Z,2.13
2022-11-21T03:36:20.270Z,2.09
2022-11-21T03:38:46.705Z,2.08
2022-11-21T03:41:31.450Z,2.05
2022-11-21T03:44:05.083Z,2.06
2022-11-21T03:46:32.655Z,2.06
2022-11-21T03:48:59.142Z,2.06
2022-11-21T03:51:25.580Z,2.03
2022-11-21T03:53:52.046Z,2.05
2022-11-21T03:56:19.354Z,2.00
2022-11-21T03:58:45.830Z,1.99
2022-11-21T04:01:15.666Z,1.96
2022-11-21T04:03:42.565Z,1.98
2022-11-21T04:06:09.522Z,1.98
2022-11-21T04:08:37.994Z,1.97
2022-11-21T04:11:04.459Z,1.94
2022-11-21T04:13:30.898Z,1.92
2022-11-21T04:15:57.367Z,1.92
2022-11-21T04:18:23.895Z,1.85
2022-11-21T04:20:55.299Z,1.85
2022-11-21T04:23:21.711Z,1.85
2022-11-21T04:25:48.157Z,1.85
2022-11-21T04:28:15.070Z,1.87
2022-11-21T04:30:41.495Z,1.83
2022-11-21T04:33:07.962Z,1.83
2022-11-21T04:35:34.462Z,1.82
2022-11-21T04:38:00.906Z,1.77
2022-11-21T04:40:27.354Z,1.78
2022-11-21T04:42:53.786Z,1.78
2022-11-21T04:45:20.215Z,1.81
2022-11-21T04:47:46.877Z,1.82
2022-11-21T04:50:14.487Z,1.85
2022-11-21T04:52:41.161Z,1.84
2022-11-21T04:55:07.817Z,1.86
2022-11-21T04:57:34.464Z,1.76
2022-11-21T05:00:00.957Z,1.73
2022-11-21T05:02:27.454Z,1.77
2022-11-21T05:04:53.906Z,1.74
2022-11-21T05:07:20.366Z,1.76
2022-11-21T05:09:46.866Z,1.77
2022-11-21T05:12:32.052Z,1.75
2022-11-21T05:14:58.488Z,1.73
2022-11-21T05:17:24.923Z,1.74
2022-11-21T05:19:51.353Z,1.73
2022-11-21T05:22:17.814Z,1.75
2022-11-21T05:24:44.228Z,1.73
2022-11-21T05:27:10.661Z,1.76
2022-11-21T05:29:37.087Z,1.71
2022-11-21T05:32:03.549Z,1.72
2022-11-21T05:34:30.235Z,1.72
2022-11-21T05:36:58.526Z,1.74
2022-11-21T05:39:25.291Z,1.75
2022-11-21T05:41:51.785Z,1.76
2022-11-21T05:44:18.272Z,1.76
2022-11-21T05:46:44.715Z,1.76
2022-11-21T05:49:11.395Z,1.73
2022-11-21T05:51:38.045Z,1.74
2022-11-21T05:54:04.580Z,1.74
2022-11-21T05:56:31.032Z,1.76
2022-11-21T05:58:58.029Z,1.76
2022-11-21T06:01:43.233Z,1.72
2022-11-21T06:04:09.911Z,1.70
2022-11-21T06:06:36.504Z,1.70
2022-11-21T06:09:03.069Z,1.72
2022-11-21T06:11:29.543Z,1.73
2022-11-21T06:13:56.008Z,1.72
2022-11-21T06:16:22.645Z,1.74
2022-11-21T06:18:52.734Z,1.74
2022-11-21T06:21:24.199Z,1.74
2022-11-21T06:23:51.445Z,1.78
2022-11-21T06:26:18.800Z,1.75
2022-11-21T06:28:45.498Z,1.77
2022-11-21T06:31:12.922Z,1.78
2022-11-21T06:33:39.719Z,1.78
2022-11-21T06:36:24.634Z,1.80
2022-11-21T06:38:52.661Z,1.81
2022-11-21T06:41:20.098Z,1.80
2022-11-21T06:43:46.625Z,1.83
2022-11-21T06:46:13.559Z,1.82
2022-11-21T06:48:40.174Z,1.84
2022-11-21T06:51:07.414Z,1.85
2022-11-21T06:53:34.196Z,1.85
2022-11-21T06:56:01.513Z,1.86
2022-11-21T06:58:29.061Z,1.88
2022-11-21T07:00:55.719Z,1.91
2022-11-21T07:03:22.388Z,1.92
2022-11-21T07:05:49.290Z,1.93
2022-11-21T07:08:15.760Z,1.94
2022-11-21T07:10:57.303Z,1.92
2022-11-21T07:13:28.865Z,1.94
2022-11-21T07:15:55.745Z,1.98
2022-11-21T07:18:22.788Z,1.99
2022-11-21T07:20:49.296Z,2.03
2022-11-21T07:23:15.758Z,1.99
2022-11-21T07:25:42.388Z,1.98
2022-11-21T07:28:09.017Z,1.98
2022-11-21T07:30:36.187Z,2.00
2022-11-21T07:33:04.015Z,1.99
2022-11-21T07:35:30.447Z,2.01
2022-11-21T07:37:56.867Z,2.03
2022-11-21T07:40:23.302Z,2.08
2022-11-21T07:42:49.771Z,2.13
2022-11-21T07:45:16.337Z,2.16
2022-11-21T07:47:42.795Z,2.18
2022-11-21T07:50:09.730Z,2.22
2022-11-21T07:52:36.203Z,2.25
2022-11-21T07:55:03.751Z,2.29
2022-11-21T07:57:30.278Z,2.32
2022-11-21T07:59:56.757Z,2.36
2022-11-21T08:02:26.987Z,2.40
2022-11-21T08:04:53.757Z,2.39
2022-11-21T08:07:20.830Z,2.49
2022-11-21T08:09:47.321Z,2.48
2022-11-21T08:12:13.865Z,2.52
2022-11-21T08:14:40.308Z,2.57
2022-11-21T08:17:07.080Z,2.69
2022-11-21T08:19:33.565Z,2.80
2022-11-21T08:22:00.239Z,2.86
2022-11-21T08:24:26.697Z,2.90
2022-11-21T08:26:53.143Z,2.98
2022-11-21T08:29:19.594Z,2.92
2022-11-21T08:31:46.143Z,3.03
2022-11-21T08:34:14.632Z,3.00
2022-11-21T08:36:41.257Z,2.98
2022-11-21T08:39:07.724Z,2.97
2022-11-21T08:41:52.813Z,2.96
2022-11-21T08:44:19.275Z,2.98
2022-11-21T08:46:45.708Z,3.04
2022-11-21T08:49:12.183Z,3.07
2022-11-21T08:51:38.614Z,3.09
2022-11-21T08:54:05.065Z,3.14
2022-11-21T08:56:31.537Z,3.19
2022-11-21T08:58:58.012Z,3.26
2022-11-21T09:01:24.477Z,3.43
2022-11-21T09:03:51.054Z,3.66
2022-11-21T09:06:17.514Z,3.74
2022-11-21T09:08:43.957Z,3.80
2022-11-21T09:11:10.401Z,3.81
2022-11-21T09:13:37.106Z,3.87
2022-11-21T09:16:22.286Z,3.91
2022-11-21T09:18:49.027Z,3.91
2022-11-21T09:21:16.196Z,3.93
2022-11-21T09:23:42.736Z,3.90
2022-11-21T09:26:09.251Z,3.91
2022-11-21T09:28:38.698Z,3.79
2022-11-21T09:31:05.278Z,3.73
2022-11-21T09:33:31.713Z,3.78
2022-11-21T09:35:58.577Z,3.97
2022-11-21T09:38:26.742Z,4.11
2022-11-21T09:40:55.815Z,4.20
2022-11-21T09:43:40.984Z,4.25
2022-11-21T09:46:11.361Z,4.20
2022-11-21T09:48:48.707Z,4.18
2022-11-21T09:51:15.531Z,4.20
2022-11-21T09:54:11.589Z,4.13
2022-11-21T09:56:38.990Z,4.10
2022-11-21T09:59:05.934Z,4.08
2022-11-21T10:01:32.570Z,4.15
2022-11-21T10:03:59.006Z,4.14
2022-11-21T10:06:26.999Z,4.19
2022-11-21T10:08:59.522Z,4.21
2022-11-21T10:12:03.198Z,4.23
2022-11-21T10:14:29.784Z,4.23
2022-11-21T10:17:00.494Z,4.30
2022-11-21T10:19:33.731Z,4.41
2022-11-21T10:22:06.325Z,4.62
2022-11-21T10:24:38.733Z,5.06
2022-11-21T10:27:06.912Z,5.28
2022-11-21T10:29:41.472Z,5.28
2022-11-21T10:32:27.289Z,5.16
2022-11-21T10:34:55.773Z,4.98
2022-11-21T10:37:32.823Z,4.69
2022-11-21T10:40:03.092Z,4.41
2022-11-21T10:42:31.125Z,4.44
2022-11-21T10:45:16.310Z,4.43
2022-11-21T10:47:43.449Z,4.36
2022-11-21T10:50:09.850Z,4.33
2022-11-21T10:52:38.546Z,4.42
2022-11-21T10:55:04.997Z,4.83
2022-11-21T10:57:31.987Z,4.98
2022-11-21T11:00:00.139Z,4.74
2022-11-21T11:02:26.880Z,4.70
2022-11-21T11:05:13.243Z,4.84
2022-11-21T11:07:39.727Z,4.84
2022-11-21T11:10:28.397Z,4.93
2022-11-21T11:13:38.607Z,4.85
2022-11-21T11:16:06.534Z,4.92
2022-11-21T11:18:34.143Z,5.11
2022-11-21T11:21:11.789Z,5.12
2022-11-21T11:23:38.221Z,5.18
2022-11-21T11:26:15.129Z,5.16
2022-11-21T11:28:41.562Z,5.03
2022-11-21T11:31:08.221Z,5.05
2022-11-21T11:33:38.564Z,5.02
2022-11-21T11:36:13.151Z,5.03
2022-11-21T11:38:39.588Z,5.05
2022-11-21T11:41:09.234Z,5.06
2022-11-21T11:43:57.470Z,4.94
2022-11-21T11:46:55.011Z,4.87
2022-11-21T11:49:24.445Z,4.82
2022-11-21T11:51:54.803Z,4.80
2022-11-21T11:54:28.984Z,4.75
2022-11-21T11:56:55.437Z,4.80
2022-11-21T11:59:35.253Z,4.71
2022-11-21T12:02:07.486Z,4.63
2022-11-21T12:04:38.123Z,4.54
2022-11-21T12:10:01.234Z,4.49
2022-11-21T12:12:44.604Z,4.53
2022-11-21T12:15:36.868Z,4.64
2022-11-21T12:18:15.555Z,4.70
2022-11-21T12:20:48.040Z,4.81
2022-11-21T12:23:14.518Z,4.81
2022-11-21T12:25:41.802Z,4.79
2022-11-21T12:28:12.854Z,4.79
2022-11-21T12:30:54.702Z,4.78
2022-11-21T12:33:22.354Z,4.77
2022-11-21T12:36:09.228Z,4.84
2022-11-21T12:39:02.390Z,4.78
2022-11-21T12:41:47.506Z,4.76
2022-11-21T12:44:18.880Z,4.84
2022-11-21T12:46:45.282Z,4.88
2022-11-21T12:49:43.095Z,4.95
2022-11-21T12:52:30.631Z,4.97
2022-11-21T12:55:09.240Z,4.95
2022-11-21T12:57:48.766Z,5.09
2022-11-21T13:00:17.348Z,5.24
2022-11-21T13:02:53.229Z,5.29
2022-11-21T13:05:27.841Z,5.27
2022-11-21T13:07:55.460Z,5.09
2022-11-21T13:10:21.870Z,4.94
2022-11-21T13:12:50.138Z,4.59
2022-11-21T13:15:19.694Z,4.40
2022-11-21T13:18:13.370Z,4.33
2022-11-21T13:20:40.950Z,4.27
2022-11-21T13:23:27.428Z,4.27
2022-11-21T13:25:53.895Z,4.34
2022-11-21T13:28:20.326Z,4.35
2022-11-21T13:30:53.365Z,4.44
2022-11-21T13:33:35.052Z,4.59
2022-11-21T13:36:02.595Z,4.61
2022-11-21T13:38:29.107Z,4.64
2022-11-21T13:41:14.089Z,4.56
2022-11-21T13:43:40.566Z,4.54
2022-11-21T13:46:07.047Z,4.42
2022-11-21T13:48:52.374Z,4.35
2022-11-21T13:51:21.792Z,4.19
2022-11-21T13:53:57.774Z,4.16
2022-11-21T13:56:28.735Z,4.15
2022-11-21T13:58:55.191Z,4.06
2022-11-21T14:01:40.402Z,4.12
2022-11-21T14:04:26.187Z,4.25
2022-11-21T14:06:52.684Z,4.20
2022-11-21T14:09:20.291Z,4.28
2022-11-21T14:11:49.750Z,4.19
2022-11-21T14:14:36.247Z,4.20
2022-11-21T14:17:05.856Z,4.12
2022-11-21T14:19:32.422Z,4.04
2022-11-21T14:21:59.892Z,3.99
2022-11-21T14:24:26.379Z,3.99
2022-11-21T14:26:52.841Z,4.01
2022-11-21T14:29:31.047Z,4.06
2022-11-21T14:31:57.632Z,3.99
2022-11-21T14:34:31.624Z,3.93
2022-11-21T14:36:59.089Z,3.89
2022-11-21T14:39:37.346Z,3.85
2022-11-21T14:42:06.645Z,3.87
2022-11-21T14:44:33.083Z,3.87
2022-11-21T14:47:08.623Z,3.83
2022-11-21T14:49:35.079Z,3.78
2022-11-21T14:52:10.766Z,3.81
2022-11-21T14:54:59.989Z,3.90
2022-11-21T14:57:30.458Z,3.85
2022-11-21T14:59:57.135Z,3.66
2022-11-21T15:02:24.707Z,3.52
2022-11-21T15:04:52.502Z,3.38
2022-11-21T15:07:20.861Z,3.29
2022-11-21T15:12:36.141Z,3.17
2022-11-21T15:15:06.995Z,3.08
2022-11-21T15:17:33.430Z,2.99
2022-11-21T15:20:12.307Z,2.96
2022-11-21T15:22:39.651Z,2.87
2022-11-21T15:25:07.298Z,2.80
2022-11-21T15:27:33.778Z,2.64
2022-11-21T15:30:09.372Z,2.51
2022-11-21T15:33:02.159Z,2.51
2022-11-21T15:35:37.699Z,2.45
2022-11-21T15:38:22.974Z,2.27
2022-11-21T15:41:06.829Z,2.19
2022-11-21T15:43:39.351Z,2.07
2022-11-21T15:46:12.016Z,2.05
2022-11-21T15:48:38.609Z,2.09
2022-11-21T15:51:05.047Z,2.05
2022-11-21T15:53:31.579Z,2.13
2022-11-21T15:55:58.064Z,2.14
2022-11-21T15:58:24.495Z,2.16
2022-11-21T16:00:51.040Z,2.19
2022-11-21T16:03:17.461Z,2.17
2022-11-21T16:05:43.893Z,2.18
2022-11-21T16:08:10.342Z,2.14
2022-11-21T16:10:36.841Z,2.17
2022-11-21T16:13:03.520Z,2.17
2022-11-21T16:15:29.995Z,2.09
2022-11-21T16:17:56.495Z,2.13
2022-11-21T16:20:23.079Z,2.10
2022-11-21T16:22:49.993Z,2.20
2022-11-21T16:25:16.753Z,2.23
2022-11-21T16:27:43.216Z,2.25
2022-11-21T16:30:09.885Z,2.26
2022-11-21T16:32:36.351Z,2.24
2022-11-21T16:35:02.861Z,2.22
2022-11-21T16:37:31.342Z,2.16
2022-11-21T16:39:57.800Z,2.07
2022-11-21T16:42:24.287Z,2.09
2022-11-21T16:44:50.751Z,2.07
2022-11-21T16:47:17.243Z,2.13
2022-11-21T16:49:48.483Z,2.17
2022-11-21T16:52:15.076Z,2.11
2022-11-21T16:54:41.528Z,2.15
2022-11-21T16:57:08.589Z,2.18
2022-11-21T16:59:35.118Z,2.17
2022-11-21T17:02:01.560Z,2.20
2022-11-21T17:04:28.041Z,2.16
2022-11-21T17:06:54.536Z,2.09
2022-11-21T17:09:21.147Z,2.10
2022-11-21T17:11:47.603Z,2.13
2022-11-21T17:14:14.260Z,2.20
2022-11-21T17:16:41.711Z,2.23
2022-11-21T17:19:09.955Z,2.24
2022-11-21T17:21:36.378Z,2.24
2022-11-21T17:24:02.874Z,2.30
2022-11-21T17:26:29.994Z,2.38
2022-11-21T17:28:57.434Z,2.43
2022-11-21T17:31:23.888Z,2.41
2022-11-21T17:33:51.849Z,2.41
2022-11-21T17:36:22.243Z,2.41
2022-11-21T17:38:48.894Z,2.31
2022-11-21T17:41:16.528Z,2.30
2022-11-21T17:43:43.265Z,2.35
2022-11-21T17:46:19.953Z,2.34
2022-11-21T17:48:51.497Z,2.31
2022-11-21T17:51:21.730Z,2.29
2022-11-21T17:53:48.652Z,2.31
2022-11-21T17:56:16.429Z,2.27
2022-11-21T17:58:42.921Z,2.30
2022-11-21T18:01:11.129Z,2.34
2022-11-21T18:03:37.727Z,2.36
2022-11-21T18:06:05.215Z,2.39
2022-11-21T18:08:32.153Z,2.46
2022-11-21T18:10:59.102Z,2.50
2022-11-21T18:13:25.981Z,2.54
2022-11-21T18:15:52.420Z,2.53
2022-11-21T18:18:18.967Z,2.47
2022-11-21T18:20:45.639Z,2.42
2022-11-21T18:23:12.090Z,2.34
2022-11-21T18:25:38.589Z,2.51
2022-11-21T18:28:05.296Z,2.49
2022-11-21T18:30:32.221Z,2.46
2022-11-21T18:32:58.745Z,2.45
2022-11-21T18:35:26.394Z,2.45
2022-11-21T18:37:52.957Z,2.46
2022-11-21T18:40:19.357Z,2.44
2022-11-21T18:42:47.018Z,2.48
2022-11-21T18:45:13.558Z,2.47
2022-11-21T18:47:41.239Z,2.47
2022-11-21T18:50:07.747Z,2.59
2022-11-21T18:52:35.172Z,2.70
2022-11-21T18:55:01.612Z,2.78
2022-11-21T18:57:28.085Z,2.76
2022-11-21T18:59:54.527Z,2.76
2022-11-21T19:02:20.975Z,2.79
2022-11-21T19:04:47.443Z,2.73
2022-11-21T19:07:13.962Z,2.88
2022-11-21T19:09:40.402Z,2.81
2022-11-21T19:12:06.869Z,2.84
2022-11-21T19:14:33.317Z,2.80
2022-11-21T19:16:59.739Z,2.74
2022-11-21T19:19:34.035Z,2.73
2022-11-21T19:22:01.774Z,2.70
2022-11-21T19:24:28.298Z,2.69
2022-11-21T19:26:54.796Z,2.69
2022-11-21T19:29:21.315Z,2.68
2022-11-21T19:31:47.859Z,2.73
2022-11-21T19:34:14.664Z,2.76
2022-11-21T19:36:41.261Z,2.82
2022-11-21T19:39:07.835Z,2.81
2022-11-21T19:41:34.396Z,2.82
2022-11-21T19:44:01.202Z,2.85
2022-11-21T19:46:33.174Z,2.86
2022-11-21T19:48:59.914Z,2.92
2022-11-21T19:51:30.365Z,2.89
2022-11-21T19:53:56.805Z,2.93
2022-11-21T19:56:23.976Z,2.91
2022-11-21T19:58:50.902Z,2.92
2022-11-21T20:01:18.433Z,2.89
2022-11-21T20:03:46.093Z,2.86
2022-11-21T20:06:16.761Z,2.89
2022-11-21T20:08:43.457Z,2.95
2022-11-21T20:11:11.427Z,2.93
2022-11-21T20:13:41.420Z,2.96
2022-11-21T20:16:13.922Z,3.02
2022-11-21T20:18:40.359Z,2.99
2022-11-21T20:21:07.308Z,2.98
2022-11-21T20:23:33.744Z,2.97
2022-11-21T20:26:00.242Z,2.96
2022-11-21T20:28:26.757Z,2.93
2022-11-21T20:30:53.187Z,2.92
2022-11-21T20:33:20.586Z,2.94
2022-11-21T20:35:47.042Z,2.97
2022-11-21T20:38:13.547Z,2.94
2022-11-21T20:40:41.347Z,2.93
2022-11-21T20:43:08.591Z,2.96
2022-11-21T20:48:21.874Z,2.98
2022-11-21T20:52:04.383Z,2.98
2022-11-21T20:53:52.342Z,3.01
2022-11-21T20:56:20.465Z,3.00
2022-11-21T20:58:47.154Z,3.05
2022-11-21T21:01:14.853Z,3.01
2022-11-21T21:03:41.401Z,3.02
2022-11-21T21:06:08.717Z,3.00
2022-11-21T21:08:35.273Z,3.08
2022-11-21T21:11:06.582Z,3.08
2022-11-21T21:13:33.335Z,3.09
2022-11-21T21:16:13.467Z,3.13
2022-11-21T21:18:40.169Z,3.11
2022-11-21T21:21:16.936Z,3.13
2022-11-21T21:23:45.283Z,3.19
2022-11-21T21:26:11.762Z,3.20
2022-11-21T21:28:38.240Z,3.22
2022-11-21T21:31:12.172Z,3.22
2022-11-21T23:14:51.626Z,2.56
2022-11-21T23:17:18.366Z,2.53
2022-11-21T23:19:44.821Z,2.51
2022-11-21T23:22:11.274Z,2.48
2022-11-21T23:24:37.772Z,2.46
2022-11-21T23:27:04.852Z,2.47
2022-11-21T23:29:31.586Z,2.45
2022-11-21T23:31:58.245Z,2.46
2022-11-21T23:34:24.747Z,2.44
2022-11-21T23:36:51.182Z,2.42
2022-11-21T23:39:18.402Z,2.43
2022-11-21T23:41:44.826Z,2.45
2022-11-21T23:44:11.264Z,2.45
2022-11-21T23:46:37.733Z,2.46
2022-11-21T23:49:04.184Z,2.43
2022-11-21T23:51:30.654Z,2.46
2022-11-21T23:53:57.103Z,2.45
2022-11-21T23:56:23.550Z,2.43
2022-11-21T23:58:50.121Z,2.45
